createdAt,value
2023-01-19T00:01:43.768Z,10.70
2023-01-19T00:04:31.157Z,10.73
2023-01-19T00:07:18.544Z,10.13
2023-01-19T00:10:06.260Z,10.20
2023-01-19T00:12:53.622Z,10.00
2023-01-19T00:15:41.026Z,10.10
2023-01-19T00:18:28.377Z,10.70
2023-01-19T00:21:15.806Z,10.27
2023-01-19T00:24:03.181Z,10.90
2023-01-19T00:26:50.521Z,10.10
2023-01-19T00:29:37.900Z,10.17
2023-01-19T00:32:25.350Z,9.43
2023-01-19T00:35:12.729Z,10.13
2023-01-19T00:38:00.254Z,10.27
2023-01-19T00:40:48.034Z,10.50
2023-01-19T00:43:35.476Z,9.40
2023-01-19T00:46:26.977Z,9.47
2023-01-19T00:49:14.316Z,10.40
2023-01-19T00:52:01.737Z,10.30
2023-01-19T00:54:49.120Z,9.37
2023-01-19T00:57:36.515Z,10.17
2023-01-19T01:00:24.272Z,9.70
2023-01-19T01:03:11.750Z,10.53
2023-01-19T01:05:59.370Z,9.30
2023-01-19T01:08:46.963Z,11.37
2023-01-19T01:11:34.292Z,9.13
2023-01-19T01:14:21.643Z,9.13
2023-01-19T01:17:11.354Z,9.60
2023-01-19T01:19:58.771Z,10.27
2023-01-19T01:22:47.536Z,9.17
2023-01-19T01:25:37.663Z,9.23
2023-01-19T01:28:24.978Z,10.27
2023-01-19T01:31:12.470Z,9.90
2023-01-19T01:33:59.896Z,10.37
2023-01-19T01:36:47.295Z,10.23
2023-01-19T01:39:35.466Z,9.80
2023-01-19T01:42:26.866Z,9.27
2023-01-19T01:45:26.477Z,9.57
2023-01-19T01:48:16.972Z,8.93
2023-01-19T01:51:25.109Z,9.23
2023-01-19T01:54:23.084Z,8.93
2023-01-19T01:57:12.369Z,10.60
2023-01-19T01:59:59.916Z,9.27
2023-01-19T02:02:54.974Z,8.27
2023-01-19T02:05:42.786Z,9.77
2023-01-19T02:08:54.557Z,9.47
2023-01-19T02:12:01.247Z,9.40
2023-01-19T02:14:48.667Z,9.67
2023-01-19T02:17:36.050Z,9.97
2023-01-19T02:20:24.911Z,9.93
2023-01-19T02:23:15.843Z,9.33
2023-01-19T02:26:03.933Z,9.10
2023-01-19T02:28:54.074Z,9.33
2023-01-19T02:31:41.661Z,9.50
2023-01-19T02:34:29.617Z,9.60
2023-01-19T02:37:18.345Z,9.00
2023-01-19T02:40:06.962Z,10.10
2023-01-19T02:42:58.906Z,10.23
2023-01-19T02:45:48.125Z,9.17
2023-01-19T02:48:35.994Z,9.80
2023-01-19T02:51:26.859Z,8.73
2023-01-19T02:54:33.035Z,9.17
2023-01-19T02:57:20.360Z,8.70
2023-01-19T03:00:09.626Z,9.50
2023-01-19T03:03:30.564Z,8.73
2023-01-19T03:06:36.871Z,10.00
2023-01-19T03:09:40.095Z,8.17
2023-01-19T03:12:34.935Z,9.33
2023-01-19T03:15:36.350Z,9.00
2023-01-19T03:18:26.158Z,8.70
2023-01-19T03:21:14.709Z,8.73
2023-01-19T03:24:03.841Z,9.07
2023-01-19T03:26:59.760Z,9.33
2023-01-19T03:29:51.460Z,10.07
2023-01-19T03:32:42.005Z,9.73
2023-01-19T03:35:31.748Z,9.73
2023-01-19T03:38:21.538Z,9.10
2023-01-19T03:41:15.465Z,9.57
2023-01-19T03:44:03.077Z,8.07
2023-01-19T03:46:50.629Z,9.20
2023-01-19T03:49:39.127Z,8.97
2023-01-19T03:52:32.492Z,10.07
2023-01-19T03:55:19.887Z,8.93
2023-01-19T03:58:07.295Z,8.73
2023-01-19T04:00:54.851Z,8.57
2023-01-19T04:03:42.563Z,9.00
2023-01-19T04:06:30.094Z,8.97
2023-01-19T04:09:19.267Z,9.30
2023-01-19T04:12:07.506Z,9.07
2023-01-19T04:14:54.852Z,9.63
2023-01-19T04:17:42.513Z,10.10
2023-01-19T04:20:29.941Z,9.27
2023-01-19T04:23:17.321Z,9.27
2023-01-19T04:26:06.409Z,8.95
2023-01-19T04:28:53.801Z,8.97
2023-01-19T04:31:41.230Z,9.10
2023-01-19T04:34:28.578Z,9.40
2023-01-19T04:37:15.959Z,9.20
2023-01-19T04:40:03.359Z,8.40
2023-01-19T04:42:50.989Z,9.27
2023-01-19T04:45:38.436Z,8.13
2023-01-19T04:48:25.829Z,9.50
2023-01-19T04:51:13.195Z,9.47
2023-01-19T04:54:01.026Z,10.27
2023-01-19T04:56:48.679Z,9.70
2023-01-19T04:59:36.057Z,9.93
2023-01-19T05:02:23.756Z,10.27
2023-01-19T05:05:11.815Z,9.50
2023-01-19T05:07:59.217Z,9.93
2023-01-19T05:10:46.571Z,10.13
2023-01-19T05:13:34.099Z,10.50
2023-01-19T05:16:21.514Z,10.23
2023-01-19T05:19:08.923Z,11.03
2023-01-19T05:21:56.453Z,11.10
2023-01-19T05:24:43.791Z,9.77
2023-01-19T05:27:31.108Z,11.13
2023-01-19T05:30:19.200Z,11.93
2023-01-19T05:33:06.614Z,11.20
2023-01-19T05:35:54.283Z,10.60
2023-01-19T05:38:41.673Z,11.07
2023-01-19T05:41:29.090Z,11.80
2023-01-19T05:44:16.496Z,9.67
2023-01-19T05:47:03.860Z,11.17
2023-01-19T05:49:51.293Z,11.13
2023-01-19T05:52:38.746Z,10.87
2023-01-19T05:55:26.591Z,12.53
2023-01-19T05:58:13.963Z,11.50
2023-01-19T06:01:05.571Z,10.67
2023-01-19T06:03:53.033Z,10.57
2023-01-19T06:06:40.756Z,13.03
2023-01-19T06:09:28.134Z,11.13
2023-01-19T06:12:15.485Z,12.53
2023-01-19T06:15:02.868Z,12.23
2023-01-19T06:17:50.214Z,11.93
2023-01-19T06:20:37.895Z,12.20
2023-01-19T06:23:25.904Z,12.43
2023-01-19T06:26:13.573Z,12.60
2023-01-19T06:29:00.932Z,12.23
2023-01-19T06:31:48.450Z,12.33
2023-01-19T06:34:35.791Z,12.80
2023-01-19T06:37:25.036Z,14.50
2023-01-19T06:40:14.311Z,12.17
2023-01-19T06:43:02.919Z,12.03
2023-01-19T06:45:50.563Z,12.70
2023-01-19T06:48:38.026Z,12.30
2023-01-19T06:51:25.643Z,16.07
2023-01-19T06:54:13.029Z,20.60
2023-01-19T06:57:02.088Z,17.90
2023-01-19T06:59:50.090Z,19.67
2023-01-19T07:02:37.621Z,18.90
2023-01-19T07:05:25.037Z,15.77
2023-01-19T07:08:12.886Z,14.50
2023-01-19T07:11:25.600Z,14.33
2023-01-19T07:14:09.272Z,15.00
2023-01-19T07:16:56.697Z,14.67
2023-01-19T07:19:44.093Z,15.33
2023-01-19T07:22:31.500Z,14.83
2023-01-19T07:25:18.845Z,16.20
2023-01-19T07:28:06.216Z,17.07
2023-01-19T07:30:53.992Z,15.80
2023-01-19T07:33:41.476Z,15.67
2023-01-19T07:36:28.855Z,15.87
2023-01-19T07:39:16.304Z,15.17
2023-01-19T07:42:04.320Z,13.97
2023-01-19T07:44:51.733Z,14.73
2023-01-19T07:47:39.109Z,15.70
2023-01-19T07:50:27.718Z,16.40
2023-01-19T07:53:15.085Z,16.80
2023-01-19T07:56:02.476Z,15.13
2023-01-19T07:58:52.214Z,15.23
2023-01-19T08:01:39.670Z,15.83
2023-01-19T08:04:27.576Z,16.73
2023-01-19T08:07:15.432Z,15.67
2023-01-19T08:10:02.798Z,16.30
2023-01-19T08:12:50.146Z,17.07
2023-01-19T08:15:37.563Z,15.47
2023-01-19T08:18:24.959Z,15.80
2023-01-19T08:21:12.319Z,17.20
2023-01-19T08:23:59.809Z,16.17
2023-01-19T08:26:47.419Z,16.37
2023-01-19T08:29:34.976Z,15.80
2023-01-19T08:32:22.490Z,16.03
2023-01-19T08:35:10.285Z,15.80
2023-01-19T08:38:01.100Z,15.37
2023-01-19T08:40:49.335Z,16.10
2023-01-19T08:43:37.953Z,15.40
2023-01-19T08:46:25.467Z,15.10
2023-01-19T08:49:12.934Z,14.23
2023-01-19T08:52:00.281Z,15.50
2023-01-19T08:54:47.665Z,15.17
2023-01-19T08:57:35.093Z,15.20
2023-01-19T09:00:22.780Z,15.33
2023-01-19T09:03:13.686Z,16.47
2023-01-19T09:06:01.276Z,15.93
2023-01-19T09:08:48.857Z,16.20
2023-01-19T09:11:36.233Z,15.93
2023-01-19T09:14:23.554Z,16.30
2023-01-19T09:17:11.031Z,16.40
2023-01-19T09:19:58.476Z,21.77
2023-01-19T09:22:47.509Z,21.90
2023-01-19T09:25:34.951Z,18.57
2023-01-19T09:28:22.356Z,17.03
2023-01-19T09:31:09.959Z,17.30
2023-01-19T09:33:57.357Z,16.77
2023-01-19T09:36:44.729Z,17.23
2023-01-19T09:39:32.148Z,17.30
2023-01-19T09:42:27.674Z,15.97
2023-01-19T09:45:18.734Z,17.70
2023-01-19T09:48:11.839Z,16.43
2023-01-19T09:51:01.783Z,16.90
2023-01-19T09:54:08.309Z,16.30
2023-01-19T09:56:55.915Z,16.47
2023-01-19T09:59:47.690Z,17.57
2023-01-19T10:02:43.632Z,16.57
2023-01-19T10:06:09.414Z,16.40
2023-01-19T10:09:04.071Z,15.87
2023-01-19T10:12:01.891Z,15.40
2023-01-19T10:14:54.021Z,15.70
2023-01-19T10:17:53.456Z,16.63
2023-01-19T10:20:45.755Z,15.80
2023-01-19T10:23:36.190Z,16.20
2023-01-19T10:26:28.275Z,15.77
2023-01-19T10:29:35.178Z,16.07
2023-01-19T10:32:26.067Z,19.33
2023-01-19T10:35:21.873Z,16.90
2023-01-19T10:38:12.780Z,14.87
2023-01-19T10:41:10.776Z,15.80
2023-01-19T10:44:02.572Z,15.23
2023-01-19T10:46:50.766Z,16.13
2023-01-19T10:49:45.133Z,16.27
2023-01-19T10:52:34.614Z,16.10
2023-01-19T10:55:25.186Z,16.03
2023-01-19T10:58:29.291Z,16.87
2023-01-19T11:01:21.813Z,16.27
2023-01-19T11:04:23.285Z,16.97
2023-01-19T11:07:14.997Z,17.20
2023-01-19T11:10:17.832Z,15.90
2023-01-19T11:13:12.264Z,15.83
2023-01-19T11:16:04.878Z,15.57
2023-01-19T11:18:53.043Z,15.90
2023-01-19T11:21:40.415Z,14.13
2023-01-19T11:24:27.813Z,14.27
2023-01-19T11:27:18.711Z,15.57
2023-01-19T11:30:19.984Z,16.00
2023-01-19T11:33:07.427Z,14.93
2023-01-19T11:36:02.914Z,15.53
2023-01-19T11:38:54.370Z,13.17
2023-01-19T11:41:41.907Z,13.13
2023-01-19T11:44:37.172Z,13.67
2023-01-19T11:47:29.044Z,12.90
2023-01-19T11:50:22.789Z,13.90
2023-01-19T11:53:19.165Z,12.60
2023-01-19T11:56:11.562Z,12.00
2023-01-19T11:58:58.995Z,13.03
2023-01-19T12:01:48.751Z,12.80
2023-01-19T12:04:38.855Z,10.70
2023-01-19T12:07:29.380Z,10.83
2023-01-19T12:10:30.440Z,10.17
2023-01-19T12:13:24.906Z,11.73
2023-01-19T12:16:18.434Z,12.20
2023-01-19T12:19:32.236Z,11.33
2023-01-19T12:22:21.028Z,11.03
2023-01-19T12:25:15.272Z,11.33
2023-01-19T12:28:02.832Z,11.30
2023-01-19T12:30:52.151Z,11.17
2023-01-19T12:33:40.150Z,11.10
2023-01-19T12:36:27.538Z,10.70
2023-01-19T12:39:21.725Z,11.27
2023-01-19T12:42:17.053Z,11.27
2023-01-19T12:45:09.623Z,15.10
2023-01-19T12:47:57.302Z,11.90
2023-01-19T12:50:46.513Z,11.13
2023-01-19T12:53:33.908Z,11.23
2023-01-19T12:56:27.456Z,11.73
2023-01-19T12:59:41.326Z,11.23
2023-01-19T13:02:28.698Z,11.20
2023-01-19T13:05:18.989Z,11.83
2023-01-19T13:08:06.563Z,12.10
2023-01-19T13:10:59.938Z,11.37
2023-01-19T13:13:50.170Z,12.47
2023-01-19T13:16:37.544Z,11.80
2023-01-19T13:19:31.276Z,11.47
2023-01-19T13:22:37.295Z,13.40
2023-01-19T13:25:30.519Z,11.93
2023-01-19T13:28:19.092Z,12.73
2023-01-19T13:31:07.320Z,11.30
2023-01-19T13:33:58.764Z,12.17
2023-01-19T13:36:47.658Z,12.10
2023-01-19T13:39:34.983Z,12.13
2023-01-19T13:42:33.987Z,11.87
2023-01-19T13:45:34.704Z,12.33
2023-01-19T13:48:23.583Z,12.17
2023-01-19T13:51:18.088Z,12.70
2023-01-19T13:54:06.130Z,12.77
2023-01-19T13:56:54.975Z,12.33
2023-01-19T13:59:42.411Z,13.37
2023-01-19T14:02:29.886Z,12.60
2023-01-19T14:05:26.428Z,12.90
2023-01-19T14:08:15.562Z,13.17
2023-01-19T14:11:03.216Z,12.40
2023-01-19T14:13:50.621Z,13.23
2023-01-19T14:16:38.070Z,13.77
2023-01-19T14:19:25.905Z,12.13
2023-01-19T14:22:13.376Z,12.67
2023-01-19T14:25:20.712Z,12.93
2023-01-19T14:28:27.508Z,12.33
2023-01-19T14:31:20.566Z,11.23
2023-01-19T14:34:27.946Z,12.63
2023-01-19T14:37:26.066Z,11.27
2023-01-19T14:40:14.742Z,10.50
2023-01-19T14:43:06.147Z,10.00
2023-01-19T14:45:53.531Z,13.82
2023-01-19T14:48:46.287Z,11.00
2023-01-19T14:51:33.639Z,11.23
2023-01-19T14:54:27.195Z,12.30
2023-01-19T14:57:14.676Z,12.10
2023-01-19T15:00:02.792Z,11.20
2023-01-19T15:02:50.238Z,16.60
2023-01-19T15:05:38.385Z,13.40
2023-01-19T15:08:33.802Z,20.03
2023-01-19T15:11:21.193Z,16.03
2023-01-19T15:14:12.011Z,16.77
2023-01-19T15:16:59.380Z,17.50
2023-01-19T15:19:46.862Z,16.27
2023-01-19T15:22:34.192Z,14.30
2023-01-19T15:25:28.162Z,14.57
2023-01-19T15:28:18.077Z,15.40
2023-01-19T15:31:05.550Z,16.20
2023-01-19T15:33:52.988Z,15.77
2023-01-19T15:36:40.332Z,14.97
2023-01-19T15:39:27.689Z,19.53
2023-01-19T15:42:15.661Z,19.43
2023-01-19T15:45:03.117Z,17.93
2023-01-19T15:47:50.483Z,15.13
2023-01-19T15:50:44.895Z,15.00
2023-01-19T15:53:32.297Z,15.53
2023-01-19T15:56:21.060Z,13.03
2023-01-19T15:59:08.508Z,14.80
2023-01-19T16:01:55.972Z,15.07
2023-01-19T16:04:43.435Z,16.03
2023-01-19T16:07:30.856Z,17.50
2023-01-19T16:10:18.360Z,20.73
2023-01-19T16:13:05.821Z,20.03
2023-01-19T16:15:53.208Z,16.40
2023-01-19T16:18:40.564Z,13.73
2023-01-19T16:21:28.169Z,15.43
2023-01-19T16:24:15.502Z,17.00
2023-01-19T16:27:03.946Z,12.17
2023-01-19T16:29:51.301Z,13.20
2023-01-19T16:32:38.710Z,14.67
2023-01-19T16:35:26.057Z,13.20
2023-01-19T16:38:13.477Z,12.87
2023-01-19T16:41:00.847Z,13.50
2023-01-19T16:43:52.110Z,12.87
2023-01-19T16:46:40.388Z,13.77
2023-01-19T16:49:28.570Z,12.60
2023-01-19T16:52:16.231Z,13.10
2023-01-19T16:55:08.745Z,13.20
2023-01-19T16:57:56.151Z,14.27
2023-01-19T17:00:43.560Z,13.07
2023-01-19T17:03:30.965Z,14.10
2023-01-19T17:06:20.080Z,14.97
2023-01-19T17:09:09.364Z,22.67
2023-01-19T17:11:58.196Z,18.93
2023-01-19T17:14:47.405Z,15.87
2023-01-19T17:17:36.181Z,15.77
2023-01-19T17:20:23.577Z,17.40
2023-01-19T17:23:10.924Z,16.37
2023-01-19T17:25:58.989Z,16.10
2023-01-19T17:28:46.650Z,14.37
2023-01-19T17:31:34.507Z,14.03
2023-01-19T17:34:21.963Z,15.00
2023-01-19T17:37:09.324Z,13.97
2023-01-19T17:39:56.723Z,15.07
2023-01-19T17:42:44.183Z,13.93
2023-01-19T17:45:31.938Z,14.63
2023-01-19T17:48:19.301Z,13.37
2023-01-19T17:51:07.601Z,13.90
2023-01-19T17:53:55.285Z,13.33
2023-01-19T17:56:42.682Z,13.87
2023-01-19T17:59:30.099Z,14.30
2023-01-19T18:02:17.523Z,14.17
2023-01-19T18:05:05.016Z,12.73
2023-01-19T18:07:52.434Z,13.13
2023-01-19T18:10:40.455Z,12.93
2023-01-19T18:13:28.569Z,12.17
2023-01-19T18:16:17.218Z,13.83
2023-01-19T18:19:04.614Z,12.77
2023-01-19T18:21:52.220Z,13.03
2023-01-19T18:24:39.708Z,12.77
2023-01-19T18:27:27.102Z,13.13
2023-01-19T18:30:14.932Z,12.57
2023-01-19T18:33:02.385Z,12.77
2023-01-19T18:35:49.758Z,13.17
2023-01-19T18:38:37.439Z,11.90
2023-01-19T18:41:24.942Z,14.07
2023-01-19T18:44:12.736Z,13.17
2023-01-19T18:47:00.122Z,12.87
2023-01-19T18:49:47.479Z,13.97
2023-01-19T18:52:34.875Z,13.40
2023-01-19T18:55:22.201Z,13.43
2023-01-19T18:58:09.593Z,13.07
2023-01-19T19:00:57.544Z,12.57
2023-01-19T19:03:45.063Z,11.83
2023-01-19T19:06:32.526Z,11.50
2023-01-19T19:09:20.281Z,12.00
2023-01-19T19:12:09.558Z,10.70
2023-01-19T19:14:56.975Z,10.73
2023-01-19T19:17:44.347Z,10.10
2023-01-19T19:20:31.713Z,11.13
2023-01-19T19:23:19.146Z,9.80
2023-01-19T19:26:07.807Z,9.47
2023-01-19T19:28:55.469Z,9.60
2023-01-19T19:31:42.874Z,10.37
2023-01-19T19:34:30.576Z,9.77
2023-01-19T19:37:17.964Z,10.87
2023-01-19T19:40:05.469Z,10.47
2023-01-19T19:42:52.844Z,9.73
2023-01-19T19:45:40.178Z,10.43
2023-01-19T19:48:27.927Z,10.33
2023-01-19T19:51:26.864Z,9.53
2023-01-19T19:54:14.231Z,10.50
2023-01-19T19:57:01.595Z,10.03
2023-01-19T19:59:48.972Z,12.50
2023-01-19T20:02:36.809Z,16.87
2023-01-19T20:05:24.168Z,13.37
2023-01-19T20:08:11.664Z,11.03
2023-01-19T20:11:09.947Z,8.97
2023-01-19T20:13:57.330Z,8.70
2023-01-19T20:16:45.087Z,8.53
2023-01-19T20:19:32.748Z,8.33
2023-01-19T20:22:20.273Z,9.10
2023-01-19T20:25:07.823Z,8.00
2023-01-19T20:27:56.924Z,7.90
2023-01-19T20:30:44.397Z,7.17
2023-01-19T20:33:31.771Z,6.37
2023-01-19T20:36:19.451Z,6.27
2023-01-19T20:39:11.018Z,6.07
2023-01-19T20:41:58.347Z,5.33
2023-01-19T20:44:45.747Z,5.33
2023-01-19T20:47:33.099Z,6.57
2023-01-19T20:50:20.532Z,6.00
2023-01-19T20:53:07.910Z,6.07
2023-01-19T20:55:55.648Z,5.13
2023-01-19T20:58:43.512Z,5.47
2023-01-19T21:01:30.970Z,5.03
2023-01-19T21:04:18.476Z,5.57
2023-01-19T21:07:05.873Z,4.87
2023-01-19T21:09:53.233Z,4.10
2023-01-19T21:12:40.598Z,5.40
2023-01-19T21:15:27.948Z,4.30
2023-01-19T21:18:15.386Z,4.63
2023-01-19T21:21:02.720Z,4.80
2023-01-19T21:23:50.180Z,4.93
2023-01-19T21:26:37.892Z,4.40
2023-01-19T21:29:25.272Z,4.77
2023-01-19T21:32:12.678Z,3.97
2023-01-19T21:35:00.019Z,5.50
2023-01-19T21:37:47.697Z,4.30
2023-01-19T21:40:37.382Z,3.87
2023-01-19T21:43:25.430Z,3.87
2023-01-19T21:46:14.309Z,3.97
2023-01-19T21:49:05.512Z,3.90
2023-01-19T21:51:52.925Z,3.97
2023-01-19T21:54:40.357Z,4.87
2023-01-19T21:57:44.426Z,4.07
2023-01-19T22:00:31.833Z,3.73
2023-01-19T22:03:19.311Z,3.90
2023-01-19T22:06:07.716Z,4.93
2023-01-19T22:08:55.512Z,5.83
2023-01-19T22:11:42.965Z,4.30
2023-01-19T22:14:30.391Z,3.73
2023-01-19T22:17:17.986Z,3.40
2023-01-19T22:20:05.546Z,4.23
2023-01-19T22:22:52.909Z,3.40
2023-01-19T22:25:40.265Z,3.57
2023-01-19T22:28:27.601Z,3.17
2023-01-19T22:31:17.147Z,3.17
2023-01-19T22:34:09.737Z,3.17
2023-01-19T22:36:57.120Z,3.10
2023-01-19T22:39:44.525Z,3.30
2023-01-19T22:42:31.905Z,2.97
2023-01-19T22:45:19.829Z,3.37
2023-01-19T22:48:07.229Z,4.50
2023-01-19T22:50:57.663Z,3.53
2023-01-19T22:53:45.111Z,6.23
2023-01-19T22:56:33.276Z,7.33
2023-01-19T22:59:20.640Z,6.83
2023-01-19T23:02:09.099Z,8.53
2023-01-19T23:04:56.436Z,7.30
2023-01-19T23:07:43.794Z,8.07
2023-01-19T23:10:31.314Z,7.93
2023-01-19T23:13:18.660Z,5.97
2023-01-19T23:16:06.252Z,6.47
2023-01-19T23:18:54.581Z,5.27
2023-01-19T23:21:42.056Z,4.23
2023-01-19T23:24:30.366Z,4.73
2023-01-19T23:27:17.768Z,4.60
2023-01-19T23:30:05.295Z,5.87
2023-01-19T23:32:52.654Z,5.50
2023-01-19T23:35:40.037Z,4.53
2023-01-19T23:38:27.406Z,5.00
2023-01-19T23:41:14.772Z,5.40
2023-01-19T23:44:02.752Z,6.30
2023-01-19T23:46:50.142Z,4.80
2023-01-19T23:49:39.572Z,4.27
2023-01-19T23:52:26.932Z,3.93
2023-01-19T23:55:14.604Z,4.87
2023-01-19T23:58:02.188Z,3.93
